메인 페이지
METAR-TAF:

METAR-TAF

공항 :

에드워즈 공군 기지

Edwards, 캘리포니아, 미국

위도: 34-55N, 경도: 117-54W, 고도: 702m

현재 날씨관측

예보는 25분 전, 18:55시(UTC)에 발표되었습니다.
남서7kt
온도 33°C
습도 13%
기압 1013 hPa
시정: 144.8km
고도 4000ft 상공 구름 조금

METAR: KEDW 131855Z 23007KT 90SM FEW040 33/01 A2992 RMK AO2A SLP104 T03310010

시각: 12:20 (19:20 UTC)

예보

예보는 5 시간 41분 전, 13:39시(UTC)에 발표되었습니다.
예보 대상 시간: 13일 13시부터 14일 19시까지 (UTC)
남서7kt
시정 10km 이상
맑음
전환 중
13일 14시부터 13일 15시까지 (UTC)
서남서10kt, 순간 최대 풍속 15kt
시정 10km 이상
맑음
전환 중
13일 23시부터 13일 24시까지 (UTC)
서남서15kt, 순간 최대 풍속 25kt
시정 10km 이상
맑음
전환 중
14일 06시부터 14일 07시까지 (UTC)
여러 방향의 바람 6kt
시정 10km 이상
맑음

TAF: KEDW 131339Z 1313/1419 23007KT 9999 SKC QNH2992INS BECMG 1314/1315 24010G15KT 9999 SKC QNH2991INS BECMG 1323/1324 24015G25KT 9999 SKC 520006 QNH2990INS BECMG 1406/1407 VRB06KT 9999 SKC QNH2994INS TX37/1322Z TN18/1413Z

4,000개 이상의 공항 관측 자료 및 예보 (METAR 및 TAF 보고).

지도상에서 검색 가능한 기상관측소가 노란 점과 빨간 점으로 표시되어 있습니다.

기상관측소 명을 보려면 표시 위로 마우스를 이동하세요.

날씨 관측과 예보를 보려면 클릭하세요.

지도 변경 : 확대하려면 엑스 표시가 있는 녹색 버튼, 축소하려면 빼기 표시가 있는 녹색 버튼, 다음 페이지의 지도를 보려면 녹색 화살표를 클릭하세요.


METAR-TAF: